Time;durP1;ratioP1;P1;durP2;ratioP2;P2;SDS_P1;SDS_P2;PMS_P1;PMS_P2;Temp;Humidity;BMP_temperature;BMP_pressure;BME280_temperature;BME280_humidity;BME280_pressure;Samples;Min_cycle;Max_cycle;Signal;HPM_P1;HPM_P2
2022/11/30 00:01:15;;;;;;;42.00;27.00;;;;;;;1.94;79.12;99697.16;5028256;28;20054;-73
2022/11/30 00:03:41;;;;;;;43.08;26.80;;;;;;;1.96;79.20;99698.00;5028451;28;20038;-73
2022/11/30 00:06:11;;;;;;;41.80;25.35;;;;;;;1.97;79.34;99685.78;5028219;28;20053;-73
2022/11/30 00:08:39;;;;;;;38.83;25.05;;;;;;;1.96;79.16;99687.53;5028299;28;20045;-73
2022/11/30 00:11:08;;;;;;;40.20;28.00;;;;;;;1.73;79.31;99640.84;5028014;28;20049;-73
2022/11/30 00:13:35;;;;;;;42.38;27.75;;;;;;;1.93;79.33;99682.34;5026635;28;20038;-73
2022/11/30 00:16:02;;;;;;;39.03;25.45;;;;;;;1.93;79.33;99682.34;5027724;28;20046;-73
2022/11/30 00:18:29;;;;;;;38.25;25.65;;;;;;;1.93;79.25;99676.25;5026819;28;20042;-73
2022/11/30 00:20:59;;;;;;;40.78;26.80;;;;;;;1.92;79.32;99680.63;5026779;28;20124;-73
2022/11/30 00:23:26;;;;;;;38.35;24.40;;;;;;;1.93;79.29;99682.34;5027574;28;20045;-73
2022/11/30 00:25:54;;;;;;;38.33;24.38;;;;;;;1.94;79.31;99678.84;5027798;28;20323;-73
2022/11/30 00:28:21;;;;;;;38.78;24.65;;;;;;;1.93;79.26;99682.34;5027941;28;20038;-72
2022/11/30 00:30:57;;;;;;;38.05;23.98;;;;;;;1.93;79.33;99684.09;5027448;28;20300;-73
2022/11/30 00:33:23;;;;;;;41.13;25.73;;;;;;;1.90;79.42;99680.66;5027420;28;20073;-73
2022/11/30 00:35:56;;;;;;;37.53;23.48;;;;;;;1.92;79.36;99690.22;5027399;28;20041;-72
2022/11/30 00:38:24;;;;;;;38.70;26.55;;;;;;;1.93;79.38;99695.41;5027820;28;20041;-73
2022/11/30 00:40:50;;;;;;;39.38;25.58;;;;;;;1.94;79.35;99693.66;5026519;28;20217;-73
2022/11/30 00:43:19;;;;;;;39.50;26.05;;;;;;;1.91;79.37;99699.81;5027293;28;20046;-73
2022/11/30 00:45:45;;;;;;;38.72;24.50;;;;;;;1.90;79.49;99693.72;5027537;28;20045;-73
2022/11/30 00:48:12;;;;;;;42.80;25.75;;;;;;;1.90;79.60;99698.09;5027488;28;20053;-73
2022/11/30 00:50:39;;;;;;;39.08;24.90;;;;;;;1.90;79.47;99695.47;5027704;28;20213;-73
2022/11/30 00:53:06;;;;;;;43.08;28.38;;;;;;;1.92;79.62;99705.91;5026104;28;20057;-73
2022/11/30 00:55:32;;;;;;;44.50;27.83;;;;;;;1.72;79.33;99662.63;5026755;28;20046;-74
2022/11/30 00:57:59;;;;;;;44.63;29.17;;;;;;;1.92;79.66;99693.69;5026102;28;20038;-73
2022/11/30 01:00:28;;;;;;;37.97;25.42;;;;;;;1.94;79.67;99693.66;5026235;28;20045;-74
2022/11/30 01:02:55;;;;;;;40.03;27.08;;;;;;;1.94;nan;99697.16;5026944;28;20054;-73
2022/11/30 01:05:22;;;;;;;46.80;31.25;;;;;;;1.94;79.66;99704.13;5026925;28;20048;-73
2022/11/30 01:07:49;;;;;;;41.42;25.75;;;;;;;1.24;79.63;99581.44;5026884;28;20046;-74
2022/11/30 01:10:16;;;;;;;44.03;28.70;;;;;;;1.51;79.55;99626.31;5026077;28;20348;-73
2022/11/30 01:12:43;;;;;;;41.47;27.63;;;;;;;1.95;79.38;99696.25;5027331;28;20050;-73
2022/11/30 01:15:10;;;;;;;41.25;27.27;;;;;;;1.98;79.47;99714.50;5025871;28;20060;-73
2022/11/30 01:17:39;;;;;;;45.30;27.90;;;;;;;1.98;79.29;99722.34;5027069;28;20045;-73
2022/11/30 01:20:07;;;;;;;43.55;26.35;;;;;;;1.93;79.09;99718.09;5026983;28;20101;-73
2022/11/30 01:22:35;;;;;;;46.50;28.83;;;;;;;0.77;79.14;99523.78;5027167;28;20041;-74
2022/11/30 01:25:02;;;;;;;42.53;28.13;;;;;;;1.86;79.21;99717.31;5027113;28;20228;-73
2022/11/30 01:27:28;;;;;;;42.47;27.00;;;;;;;1.44;79.09;99645.56;5026768;28;20068;-74
2022/11/30 01:29:55;;;;;;;42.10;26.23;;;;;;;1.81;79.36;99708.66;5026842;28;20050;-74
2022/11/30 01:32:22;;;;;;;46.20;31.05;;;;;;;1.78;79.37;99716.56;5026947;28;20072;-72
2022/11/30 01:34:50;;;;;;;42.55;28.27;;;;;;;1.75;79.52;99713.97;5025539;28;20049;-73
2022/11/30 01:37:17;;;;;;;39.53;25.98;;;;;;;1.72;79.41;99719.25;5026187;28;20048;-73
2022/11/30 01:39:43;;;;;;;44.53;26.40;;;;;;;1.74;79.38;99709.63;5026354;28;20313;-73
2022/11/30 01:42:14;;;;;;;42.90;28.05;;;;;;;1.77;79.56;99707.84;5026873;28;20088;-73
2022/11/30 01:44:55;;;;;;;41.50;27.20;;;;;;;1.80;79.43;99704.31;5026183;28;20044;-73
2022/11/30 01:47:27;;;;;;;40.10;25.67;;;;;;;1.78;79.35;99700.88;5027065;28;20049;-74
2022/11/30 01:50:01;;;;;;;48.75;31.55;;;;;;;1.79;79.32;99706.06;5026206;28;20045;-73
2022/11/30 01:52:33;;;;;;;44.55;29.23;;;;;;;1.54;79.27;99663.72;5025094;28;20194;-73
2022/11/30 01:55:08;;;;;;;41.53;26.83;;;;;;;1.77;79.21;99709.59;5025269;28;20038;-73
2022/11/30 01:57:38;;;;;;;43.70;28.60;;;;;;;1.75;79.31;99700.91;5026016;28;20096;-73
2022/11/30 02:00:09;;;;;;;42.97;27.40;;;;;;;1.44;79.21;99662.13;5026042;28;20064;-73
2022/11/30 02:02:47;;;;;;;50.85;30.20;;;;;;;1.78;79.17;99706.97;5026273;28;20050;-73
2022/11/30 02:05:17;;;;;;;46.65;29.98;;;;;;;1.79;79.24;99711.31;5026479;28;20041;-73
2022/11/30 02:07:44;;;;;;;44.03;26.05;;;;;;;1.75;79.14;99713.97;5025687;28;20056;-73
2022/11/30 02:10:15;;;;;;;44.72;28.02;;;;;;;1.33;79.18;99642.25;5026139;28;20045;-72
2022/11/30 02:13:00;;;;;;;40.38;28.20;;;;;;;1.51;79.19;99670.72;5025871;28;20209;-74
2022/11/30 02:15:33;;;;;;;46.40;28.23;;;;;;;1.74;79.17;99707.88;5026053;28;20238;-73
2022/11/30 02:18:10;;;;;;;46.72;27.15;;;;;;;1.76;79.22;99705.25;5025928;28;20054;-73
2022/11/30 02:20:53;;;;;;;43.00;26.92;;;;;;;1.76;79.09;99700.88;5025401;28;20226;-73
2022/11/30 02:23:49;;;;;;;45.78;29.85;;;;;;;1.77;79.22;99699.16;5025957;28;20075;-72
2022/11/30 02:26:35;;;;;;;44.25;27.65;;;;;;;1.76;79.54;99700.03;5026228;28;20081;-73
2022/11/30 02:29:21;;;;;;;46.10;28.08;;;;;;;1.79;79.10;99694.75;5025658;28;20088;-73
2022/11/30 02:31:55;;;;;;;42.90;25.95;;;;;;;1.81;79.00;99709.53;5024849;28;20054;-73
2022/11/30 02:34:26;;;;;;;42.90;28.58;;;;;;;1.82;79.07;99705.16;5025501;28;20178;-73
2022/11/30 02:36:55;;;;;;;44.28;29.30;;;;;;;1.86;78.90;99712.94;5025857;28;20042;-73
2022/11/30 02:39:22;;;;;;;49.47;30.90;;;;;;;1.86;78.97;99712.06;5025585;28;20045;-73
2022/11/30 02:41:49;;;;;;;42.70;28.27;;;;;;;1.86;79.00;99717.31;5025366;28;20042;-73
2022/11/30 02:44:17;;;;;;;46.53;29.00;;;;;;;1.81;78.85;99724.34;5026035;28;20049;-73
2022/11/30 02:47:00;;;;;;;50.13;30.13;;;;;;;1.74;79.06;99720.09;5025391;28;20046;-73
2022/11/30 02:49:33;;;;;;;43.95;28.48;;;;;;;1.71;79.21;99718.38;5025408;28;20046;-73
2022/11/30 02:52:02;;;;;;;51.45;31.48;;;;;;;0.88;79.42;99594.97;5025166;28;20058;-73
2022/11/30 02:54:29;;;;;;;48.58;29.83;;;;;;;1.75;79.36;99720.06;5025827;28;20050;-73
2022/11/30 02:56:55;;;;;;;49.28;30.13;;;;;;;1.75;79.35;99724.44;5025653;28;20045;-73
2022/11/30 02:59:24;;;;;;;45.45;28.58;;;;;;;1.76;79.29;99719.19;5025218;28;20046;-73
2022/11/30 03:01:50;;;;;;;48.33;28.77;;;;;;;1.79;79.42;99710.44;5025565;28;20062;-73
2022/11/30 03:04:17;;;;;;;47.00;30.45;;;;;;;1.81;79.23;99716.50;5025276;28;20218;-73
2022/11/30 03:06:44;;;;;;;47.85;30.80;;;;;;;1.80;79.13;99712.16;5024437;28;20048;-73
2022/11/30 03:09:10;;;;;;;47.65;31.40;;;;;;;1.24;79.24;99620.59;5025247;28;20229;-73
2022/11/30 03:11:37;;;;;;;50.05;30.48;;;;;;;1.80;79.17;99709.56;5025205;28;20049;-73
2022/11/30 03:14:04;;;;;;;45.33;28.48;;;;;;;1.79;79.23;99710.44;5025388;28;20045;-73
2022/11/30 03:16:32;;;;;;;52.03;30.38;;;;;;;0.96;79.14;99567.03;5025166;28;20221;-73
2022/11/30 03:18:59;;;;;;;47.47;29.52;;;;;;;1.28;79.17;99650.13;5025755;28;20045;-74
2022/11/30 03:21:26;;;;;;;48.00;28.25;;;;;;;1.84;79.24;99713.84;5029542;28;20045;-73
2022/11/30 03:23:53;;;;;;;51.90;30.88;;;;;;;1.87;79.07;99716.41;5029156;28;20320;-72
2022/11/30 03:26:19;;;;;;;47.97;30.73;;;;;;;1.74;78.88;99691.34;5028124;28;20081;-73
2022/11/30 03:28:46;;;;;;;48.78;29.58;;;;;;;1.89;78.94;99717.25;5028675;28;20328;-73
2022/11/30 03:31:13;;;;;;;46.80;29.58;;;;;;;1.91;78.79;99720.72;5028659;28;20099;-72
2022/11/30 03:33:42;;;;;;;46.55;27.95;;;;;;;1.48;78.88;99658.56;5028926;28;20048;-73
2022/11/30 03:36:11;;;;;;;44.75;27.35;;;;;;;1.92;78.71;99719.84;5028539;28;20041;-72
2022/11/30 03:38:38;;;;;;;48.35;28.17;;;;;;;1.92;78.73;99717.22;5028510;28;20046;-73
2022/11/30 03:41:07;;;;;;;48.58;30.45;;;;;;;1.93;78.78;99724.19;5028169;28;20092;-72
2022/11/30 03:43:34;;;;;;;45.97;29.85;;;;;;;1.92;78.91;99732.91;5028729;28;20046;-72
2022/11/30 03:46:00;;;;;;;55.83;31.67;;;;;;;1.91;78.89;99725.94;5028596;28;20057;-73
2022/11/30 03:48:27;;;;;;;50.63;31.27;;;;;;;1.89;78.82;99739.03;5028325;28;20045;-72
2022/11/30 03:50:55;;;;;;;48.28;27.65;;;;;;;1.90;78.88;99732.06;5028559;28;20088;-73
2022/11/30 03:53:23;;;;;;;46.60;29.75;;;;;;;1.91;78.79;99733.78;4989362;28;20065;-73
2022/11/30 03:55:53;;;;;;;47.45;28.88;;;;;;;1.92;78.71;99734.66;4989009;28;20098;-73
2022/11/30 03:58:20;;;;;;;49.08;30.10;;;;;;;1.92;78.69;99732.03;4988218;28;20078;-73
2022/11/30 04:00:46;;;;;;;47.95;29.08;;;;;;;0.64;78.53;99515.25;4989146;28;20051;-73
2022/11/30 04:03:13;;;;;;;50.80;30.30;;;;;;;1.92;78.69;99739.88;4988977;28;20118;-73
2022/11/30 04:05:40;;;;;;;47.60;28.67;;;;;;;1.92;78.72;99738.13;4988049;28;20038;-73
2022/11/30 04:08:08;;;;;;;71.15;36.30;;;;;;;1.50;78.99;99667.25;4988824;28;20050;-71
2022/11/30 04:10:35;;;;;;;61.65;38.05;;;;;;;2.03;79.40;99743.22;4989085;28;20318;-72
2022/11/30 04:13:01;;;;;;;51.00;31.90;;;;;;;1.78;79.03;99711.31;4987935;28;20054;-73
2022/11/30 04:15:28;;;;;;;44.38;28.65;;;;;;;1.98;79.13;99738.03;4987865;28;20298;-72
2022/11/30 04:17:55;;;;;;;51.28;30.48;;;;;;;1.98;78.92;99751.13;4987997;28;20050;-73
2022/11/30 04:20:21;;;;;;;50.85;32.00;;;;;;;1.96;78.88;99739.81;4988936;28;20290;-72
2022/11/30 04:22:48;;;;;;;49.72;30.98;;;;;;;1.96;78.81;99752.03;4987835;28;20053;-73
2022/11/30 04:25:16;;;;;;;47.50;30.85;;;;;;;1.95;78.68;99748.53;4987797;28;20282;-72
2022/11/30 04:27:46;;;;;;;52.67;31.65;;;;;;;1.95;78.80;99747.69;4988808;28;20101;-73
2022/11/30 04:30:13;;;;;;;51.50;32.25;;;;;;;0.73;78.67;99548.19;4988313;28;20047;-72
2022/11/30 04:32:40;;;;;;;50.35;29.67;;;;;;;1.90;78.68;99752.97;4988071;28;20105;-72
2022/11/30 04:35:09;;;;;;;45.10;30.88;;;;;;;1.36;78.42;99669.19;4988051;28;20043;-72
2022/11/30 04:37:35;;;;;;;47.70;29.50;;;;;;;1.92;78.80;99748.59;4988362;28;20281;-72
2022/11/30 04:40:02;;;;;;;46.13;29.45;;;;;;;1.91;78.76;99746.84;4988267;28;20054;-72
2022/11/30 04:42:30;;;;;;;47.53;27.90;;;;;;;1.75;78.76;99727.03;4988521;28;20054;-73
2022/11/30 04:44:57;;;;;;;46.35;29.77;;;;;;;1.92;78.77;99748.59;4988195;28;20043;-73
2022/11/30 04:47:24;;;;;;;54.03;29.58;;;;;;;1.92;78.58;99753.81;4988344;28;20172;-73
2022/11/30 04:49:50;;;;;;;50.13;28.42;;;;;;;1.91;78.68;99754.69;4988351;28;20239;-73
2022/11/30 04:52:17;;;;;;;46.50;29.70;;;;;;;1.89;78.57;99751.25;5008852;28;20194;-73
2022/11/30 04:54:44;;;;;;;49.28;29.60;;;;;;;1.89;78.59;99752.09;5026190;28;20045;-73
2022/11/30 04:57:10;;;;;;;49.22;32.13;;;;;;;1.88;78.75;99741.66;5026980;28;20045;-73
2022/11/30 04:59:38;;;;;;;48.35;30.15;;;;;;;1.90;78.78;99755.59;5027024;28;20103;-73
2022/11/30 05:02:05;;;;;;;44.75;29.73;;;;;;;1.91;78.74;99752.09;5027173;28;20245;-73
2022/11/30 05:04:32;;;;;;;48.17;30.85;;;;;;;1.92;78.58;99745.09;5027158;28;20046;-73
2022/11/30 05:06:58;;;;;;;47.35;29.02;;;;;;;1.93;78.78;99752.06;5026006;28;20042;-73
2022/11/30 05:09:25;;;;;;;46.60;30.02;;;;;;;1.92;78.74;99750.34;5026785;28;20054;-73
2022/11/30 05:11:52;;;;;;;46.63;30.10;;;;;;;1.94;78.64;99746.81;5026711;28;20058;-73
2022/11/30 05:14:19;;;;;;;50.55;31.80;;;;;;;1.94;78.75;99748.56;5026711;28;20092;-73
2022/11/30 05:16:49;;;;;;;45.75;31.80;;;;;;;1.94;78.73;99754.66;5026870;28;20096;-73
2022/11/30 05:19:15;;;;;;;46.42;28.23;;;;;;;1.94;78.68;99757.28;5027181;28;20046;-73
2022/11/30 05:21:42;;;;;;;49.03;32.00;;;;;;;1.95;78.77;99764.22;5026289;28;20092;-72
2022/11/30 05:24:09;;;;;;;46.05;29.88;;;;;;;1.95;78.71;99760.75;5026558;28;20060;-73
2022/11/30 05:26:36;;;;;;;54.45;33.85;;;;;;;1.96;78.66;99765.97;5026521;28;20041;-73
2022/11/30 05:29:04;;;;;;;47.58;30.33;;;;;;;1.96;78.74;99781.63;5025592;28;20045;-73
2022/11/30 05:31:30;;;;;;;46.72;30.83;;;;;;;1.98;78.55;99766.78;5026973;28;20226;-72
2022/11/30 05:33:59;;;;;;;51.13;31.38;;;;;;;2.01;78.66;99774.59;5026556;28;20332;-73
2022/11/30 05:36:25;;;;;;;51.15;30.75;;;;;;;1.35;78.40;99675.28;5026745;28;20054;-73
2022/11/30 05:38:52;;;;;;;52.58;33.70;;;;;;;2.01;78.52;99769.38;5026240;28;20084;-73
2022/11/30 05:41:19;;;;;;;51.03;33.60;;;;;;;2.02;78.66;99771.09;5025911;28;20049;-73
2022/11/30 05:43:45;;;;;;;46.67;28.20;;;;;;;2.04;78.57;99776.31;5026764;28;20048;-73
2022/11/30 05:46:16;;;;;;;46.28;29.88;;;;;;;2.05;78.54;99778.03;5026408;28;20105;-72
2022/11/30 05:48:42;;;;;;;50.08;30.52;;;;;;;2.03;78.61;99775.44;5025236;28;20072;-73
2022/11/30 05:51:14;;;;;;;50.70;30.30;;;;;;;2.03;78.78;99777.19;5026145;28;20042;-73
2022/11/30 05:53:41;;;;;;;49.70;31.23;;;;;;;2.04;78.68;99778.91;5026313;28;20321;-73
2022/11/30 05:56:10;;;;;;;50.67;31.65;;;;;;;2.04;78.62;99784.16;5025893;28;20038;-73
2022/11/30 05:58:36;;;;;;;46.38;30.65;;;;;;;2.05;78.75;99781.50;5025955;28;20056;-73
2022/11/30 06:01:04;;;;;;;47.65;31.38;;;;;;;2.05;78.66;99778.91;5026428;28;20049;-73
2022/11/30 06:03:32;;;;;;;48.97;31.25;;;;;;;2.03;78.66;99783.28;5026412;28;20096;-73
2022/11/30 06:05:59;;;;;;;47.47;31.67;;;;;;;2.06;78.79;99795.44;5026128;28;20046;-73
2022/11/30 06:08:28;;;;;;;51.22;32.13;;;;;;;1.34;78.68;99672.69;5024974;28;20092;-73
2022/11/30 06:10:54;;;;;;;52.53;32.13;;;;;;;2.07;78.79;99797.19;5025662;28;20034;-73
2022/11/30 06:13:21;;;;;;;52.55;34.00;;;;;;;2.07;78.67;99791.94;5024770;28;20049;-73
2022/11/30 06:15:48;;;;;;;49.95;31.73;;;;;;;2.07;78.71;99790.19;5025772;28;20060;-73
2022/11/30 06:18:14;;;;;;;52.33;32.80;;;;;;;1.84;78.74;99759.16;5025665;28;20041;-73
2022/11/30 06:20:41;;;;;;;51.60;32.33;;;;;;;1.66;78.65;99724.56;5026207;28;20042;-73
2022/11/30 06:23:08;;;;;;;52.58;32.50;;;;;;;2.09;78.88;99795.41;5025621;28;20301;-73
2022/11/30 06:25:36;;;;;;;48.47;31.45;;;;;;;2.10;78.61;99803.22;5025920;28;20049;-73
2022/11/30 06:28:03;;;;;;;54.03;32.65;;;;;;;2.12;78.66;99796.22;5025830;28;20080;-73
2022/11/30 06:30:30;;;;;;;50.30;31.50;;;;;;;2.12;78.56;99816.28;5025553;28;20058;-73
2022/11/30 06:32:56;;;;;;;45.38;31.05;;;;;;;2.09;78.60;99806.72;5025813;28;20174;-73
2022/11/30 06:35:24;;;;;;;51.35;32.15;;;;;;;2.09;78.61;99809.34;5025669;28;20042;-73
2022/11/30 06:37:51;;;;;;;53.38;32.05;;;;;;;2.11;78.76;99809.31;5025647;28;20286;-73
2022/11/30 06:40:18;;;;;;;57.15;33.65;;;;;;;2.11;78.70;99812.81;5024623;28;20178;-73
2022/11/30 06:42:46;;;;;;;45.50;28.85;;;;;;;2.11;78.72;99812.81;5026189;28;20275;-73
2022/11/30 06:45:12;;;;;;;58.42;32.45;;;;;;;-1.20;78.32;99234.28;5024588;28;20050;-73
2022/11/30 06:47:39;;;;;;;52.20;31.35;;;;;;;2.12;78.57;99808.44;5025317;28;20298;-73
2022/11/30 06:50:08;;;;;;;51.72;31.00;;;;;;;2.11;78.75;99810.19;5025669;28;20045;-73
2022/11/30 06:52:35;;;;;;;52.67;33.88;;;;;;;2.12;78.77;99806.69;5024607;28;20321;-73
2022/11/30 06:55:03;;;;;;;51.10;33.42;;;;;;;2.13;78.59;99802.31;5027807;28;20053;-73
2022/11/30 06:57:30;;;;;;;49.80;32.20;;;;;;;2.15;78.59;99821.47;5029577;28;20301;-73
2022/11/30 06:59:59;;;;;;;47.47;31.25;;;;;;;2.14;78.66;99814.50;5013211;28;20333;-73
2022/11/30 07:02:25;;;;;;;51.35;31.65;;;;;;;2.13;78.66;99816.25;5029632;28;20174;-73
2022/11/30 07:04:52;;;;;;;49.90;31.88;;;;;;;1.97;78.76;99785.97;5029391;28;20324;-73
2022/11/30 07:07:19;;;;;;;45.10;30.27;;;;;;;0.59;78.50;99548.34;5029116;28;20053;-73
2022/11/30 07:09:45;;;;;;;49.38;32.33;;;;;;;2.19;78.61;99810.09;5029069;28;20099;-73
2022/11/30 07:12:12;;;;;;;46.90;29.42;;;;;;;2.21;78.65;99809.19;5028165;28;20049;-73
2022/11/30 07:14:39;;;;;;;49.17;31.67;;;;;;;2.21;78.65;99809.19;5029125;28;20057;-73
2022/11/30 07:17:07;;;;;;;55.38;34.22;;;;;;;2.22;78.61;99823.13;5027982;28;20297;-74
2022/11/30 07:19:34;;;;;;;45.60;29.23;;;;;;;2.20;78.77;99810.06;5028258;28;20041;-74
2022/11/30 07:22:01;;;;;;;47.20;30.13;;;;;;;2.21;78.74;99827.47;5028916;28;20197;-73
2022/11/30 07:27:12;;;;;;;49.28;29.38;;;;;;;2.23;79.00;99835.31;5028887;28;20045;-73
2022/11/30 07:29:39;;;;;;;43.78;29.48;;;;;;;2.26;78.83;99839.63;5027743;28;20141;-72
2022/11/30 07:32:07;;;;;;;54.30;32.75;;;;;;;2.26;78.80;99842.25;5029034;28;20096;-73
2022/11/30 07:34:34;;;;;;;51.20;31.13;;;;;;;2.26;79.03;99842.25;5028569;28;20053;-74
2022/11/30 07:37:01;;;;;;;48.03;32.47;;;;;;;2.00;79.10;99793.78;5027604;28;20253;-74
2022/11/30 07:39:27;;;;;;;51.90;33.08;;;;;;;2.14;79.18;99817.13;5028456;28;20083;-74
2022/11/30 07:41:54;;;;;;;48.38;33.08;;;;;;;2.02;79.20;99792.00;5028880;28;20049;-73
2022/11/30 07:44:21;;;;;;;49.80;32.90;;;;;;;2.26;79.18;99840.50;5028987;28;20045;-73
2022/11/30 07:46:47;;;;;;;51.20;32.90;;;;;;;2.27;79.37;99837.00;5028269;28;20057;-73
2022/11/30 07:49:16;;;;;;;49.72;32.67;;;;;;;2.29;79.35;99836.97;5028134;28;20054;-73
2022/11/30 07:51:42;;;;;;;45.63;32.60;;;;;;;2.31;79.41;99830.84;5028154;28;20339;-74
2022/11/30 07:54:09;;;;;;;47.83;31.38;;;;;;;-1.22;78.96;99228.22;5027251;28;20050;-73
2022/11/30 07:56:36;;;;;;;47.25;31.10;;;;;;;2.37;79.36;99829.88;5027240;28;20050;-73
2022/11/30 07:59:03;;;;;;;52.22;31.42;;;;;;;2.39;79.29;99830.72;5028033;28;20046;-74
2022/11/30 08:01:32;;;;;;;45.45;29.77;;;;;;;1.81;79.31;99755.72;5027174;28;20045;-73
2022/11/30 08:03:59;;;;;;;47.45;30.17;;;;;;;2.00;79.66;99772.88;5028227;28;20042;-74
2022/11/30 08:06:30;;;;;;;51.35;31.67;;;;;;;2.17;79.31;99827.53;5026959;28;20189;-74
2022/11/30 08:08:58;;;;;;;43.85;29.90;;;;;;;2.38;79.32;99827.25;5027655;28;20049;-74
2022/11/30 08:11:28;;;;;;;45.08;29.50;;;;;;;2.39;79.41;99833.34;5027780;28;20049;-74
2022/11/30 08:13:54;;;;;;;46.00;29.55;;;;;;;2.40;79.58;99829.84;5028119;28;20068;-74
2022/11/30 08:16:23;;;;;;;47.63;31.55;;;;;;;2.42;79.62;99835.91;5026870;28;20256;-74
2022/11/30 08:18:50;;;;;;;48.35;28.90;;;;;;;2.41;79.43;99832.44;5027813;28;20090;-74
2022/11/30 08:21:19;;;;;;;42.50;29.05;;;;;;;2.41;79.31;99834.19;5027872;28;20179;-73
2022/11/30 08:23:49;;;;;;;44.88;29.33;;;;;;;2.44;79.26;99831.53;5028153;28;20049;-73
2022/11/30 08:26:18;;;;;;;45.85;30.23;;;;;;;2.28;79.39;99799.50;5027392;28;20049;-73
2022/11/30 08:28:46;;;;;;;36.88;26.15;;;;;;;2.54;79.14;99833.13;5027809;28;20046;-73
2022/11/30 08:31:15;;;;;;;39.75;28.63;;;;;;;2.56;79.27;99836.56;5026832;28;20129;-73
2022/11/30 08:33:42;;;;;;;38.35;26.65;;;;;;;2.56;78.99;99841.81;5027805;28;20072;-73
2022/11/30 08:36:11;;;;;;;37.45;27.80;;;;;;;2.51;79.00;99831.41;5026331;28;20348;-73
2022/11/30 08:38:38;;;;;;;43.47;28.40;;;;;;;2.18;78.92;99770.00;5027259;28;20049;-73
2022/11/30 08:41:08;;;;;;;43.08;29.05;;;;;;;2.59;78.95;99839.13;5026366;28;20042;-74
2022/11/30 08:43:34;;;;;;;43.42;28.10;;;;;;;2.62;78.73;99833.00;5027309;28;20056;-73
2022/11/30 08:46:03;;;;;;;38.92;27.58;;;;;;;2.62;78.38;99846.09;5026436;28;20269;-73
2022/11/30 08:48:29;;;;;;;41.03;28.55;;;;;;;2.64;78.68;99833.84;5026470;28;20034;-74
2022/11/30 08:51:00;;;;;;;46.13;28.70;;;;;;;2.33;78.60;99779.38;5026890;28;20053;-74
2022/11/30 08:53:26;;;;;;;50.45;33.22;;;;;;;2.73;78.72;99833.69;5027092;28;20054;-74
2022/11/30 08:55:57;;;;;;;42.80;29.17;;;;;;;2.74;78.60;99836.28;5027121;28;20057;-73
2022/11/30 08:58:25;;;;;;;43.50;30.58;;;;;;;2.07;78.30;99723.97;5025871;28;20088;-72
2022/11/30 09:00:52;;;;;;;38.15;26.83;;;;;;;2.80;78.32;99845.78;5025813;28;20080;-72
2022/11/30 09:03:19;;;;;;;41.78;29.08;;;;;;;2.81;78.17;99842.28;5027403;28;20109;-72
2022/11/30 09:05:46;;;;;;;42.03;28.10;;;;;;;2.84;78.34;99842.25;5026226;28;20041;-72
2022/11/30 09:08:12;;;;;;;37.17;28.10;;;;;;;2.86;78.02;99853.56;5026345;28;20324;-73
2022/11/30 09:10:39;;;;;;;39.47;25.38;;;;;;;2.89;78.05;99869.22;5026972;28;20352;-73
2022/11/30 09:13:06;;;;;;;39.38;25.92;;;;;;;2.91;77.92;99866.56;5026840;28;20053;-72
2022/11/30 09:15:34;;;;;;;41.00;28.02;;;;;;;2.92;77.90;99861.31;5026664;28;20042;-73
2022/11/30 09:18:00;;;;;;;40.45;25.92;;;;;;;2.94;77.83;99870.00;5026593;28;20057;-72
2022/11/30 09:20:27;;;;;;;38.75;27.63;;;;;;;2.96;77.46;99867.34;5026556;28;20060;-72
2022/11/30 09:22:54;;;;;;;37.17;27.02;;;;;;;2.76;77.45;99829.28;5025688;28;20046;-73
2022/11/30 09:25:21;;;;;;;39.00;27.30;;;;;;;2.61;77.43;99805.97;5026872;28;20290;-72
2022/11/30 09:27:48;;;;;;;38.78;26.83;;;;;;;2.99;77.44;99864.69;5025629;28;20044;-72
2022/11/30 09:30:14;;;;;;;37.70;26.73;;;;;;;3.00;77.38;99863.81;5026604;28;20053;-72
2022/11/30 09:32:43;;;;;;;46.90;29.77;;;;;;;2.82;77.32;99834.41;5025722;28;20042;-72
2022/11/30 09:35:09;;;;;;;42.45;27.33;;;;;;;3.01;77.35;99860.28;5026164;28;20076;-72
2022/11/30 09:37:37;;;;;;;44.10;27.92;;;;;;;3.03;77.11;99863.75;5026353;28;20058;-72
2022/11/30 09:40:05;;;;;;;39.08;28.67;;;;;;;3.03;76.92;99863.75;5026395;28;20088;-72
2022/11/30 09:42:43;;;;;;;43.08;30.30;;;;;;;3.03;76.72;99862.00;5026310;28;20046;-72
2022/11/30 09:45:16;;;;;;;43.75;30.10;;;;;;;3.06;76.88;99858.47;5025505;28;20237;-72
2022/11/30 09:48:18;;;;;;;40.95;30.02;;;;;;;3.09;76.95;99856.66;5026482;28;20038;-71
2022/11/30 09:50:47;;;;;;;43.63;29.83;;;;;;;2.73;76.95;99787.44;5026676;28;20100;-72
2022/11/30 09:53:22;;;;;;;41.45;29.35;;;;;;;3.15;77.07;99848.69;5025794;28;20067;-72
2022/11/30 09:55:48;;;;;;;52.00;32.95;;;;;;;3.20;77.22;99852.09;5025992;28;20053;-72
2022/11/30 09:58:28;;;;;;;45.22;30.60;;;;;;;3.22;77.18;99849.44;5025030;28;20038;-72
2022/11/30 10:00:55;;;;;;;43.70;30.85;;;;;;;3.26;76.99;99840.66;5025889;28;20045;-72
2022/11/30 10:03:23;;;;;;;44.03;30.20;;;;;;;3.31;76.91;99843.19;5025876;28;20216;-72
2022/11/30 10:05:58;;;;;;;48.63;29.85;;;;;;;3.33;76.95;99839.66;5025975;28;20042;-72
2022/11/30 10:08:51;;;;;;;39.28;28.83;;;;;;;3.37;76.77;99835.22;5025796;28;20049;-72
2022/11/30 10:11:41;;;;;;;44.10;29.67;;;;;;;3.43;77.01;99832.47;5025720;28;20086;-72
2022/11/30 10:14:24;;;;;;;38.47;27.15;;;;;;;3.50;77.11;99834.97;5025662;28;20064;-72
2022/11/30 10:17:00;;;;;;;45.72;29.40;;;;;;;3.56;76.86;99836.59;5025386;28;20065;-72
2022/11/30 10:19:46;;;;;;;44.88;29.98;;;;;;;3.41;76.43;99800.19;5025704;28;20057;-72
2022/11/30 10:22:23;;;;;;;39.38;29.83;;;;;;;3.63;76.17;99835.59;5025600;28;20041;-72
2022/11/30 10:25:03;;;;;;;41.95;29.45;;;;;;;3.34;75.72;99780.25;5025776;28;20061;-72
2022/11/30 10:27:40;;;;;;;42.72;29.15;;;;;;;3.50;76.04;99800.88;5025528;28;20037;-73
2022/11/30 10:30:15;;;;;;;37.78;27.95;;;;;;;3.68;75.50;99833.75;5024266;28;20056;-72
2022/11/30 10:32:45;;;;;;;41.13;29.13;;;;;;;3.67;75.47;99823.28;5025793;28;20042;-72
2022/11/30 10:35:31;;;;;;;41.78;28.77;;;;;;;3.68;75.13;99825.00;5024711;28;20045;-73
2022/11/30 10:38:03;;;;;;;40.42;27.25;;;;;;;3.70;75.54;99817.97;5025430;28;20045;-72
2022/11/30 10:40:37;;;;;;;42.65;29.10;;;;;;;3.70;75.00;99818.84;5025397;28;20057;-72
2022/11/30 10:43:17;;;;;;;37.58;25.83;;;;;;;3.70;74.56;99823.22;5024725;28;20065;-73
2022/11/30 10:45:48;;;;;;;35.90;24.98;;;;;;;3.68;74.75;99815.38;5025453;28;20050;-73
2022/11/30 10:48:22;;;;;;;37.10;25.02;;;;;;;3.33;74.74;99749.69;5025549;28;20041;-73
2022/11/30 10:50:52;;;;;;;38.70;27.27;;;;;;;3.76;74.70;99820.47;5024680;28;20042;-73
2022/11/30 10:53:19;;;;;;;38.15;27.45;;;;;;;3.78;74.70;99814.31;5025162;28;20455;-73
2022/11/30 10:55:52;;;;;;;38.50;27.98;;;;;;;3.80;74.38;99823.00;5024307;28;20042;-73
2022/11/30 10:58:24;;;;;;;38.90;27.45;;;;;;;3.82;74.51;99821.22;5025340;28;20050;-73
2022/11/30 11:00:59;;;;;;;41.45;28.27;;;;;;;3.84;74.21;99829.91;5024845;28;20042;-73
2022/11/30 11:03:26;;;;;;;37.80;25.58;;;;;;;3.84;74.28;99827.28;5025740;28;20046;-73
2022/11/30 11:06:15;;;;;;;35.30;25.40;;;;;;;3.86;73.40;99827.25;5025506;28;20174;-73
2022/11/30 11:08:44;;;;;;;55.90;28.80;;;;;;;3.86;74.17;99827.25;5025500;28;20308;-73
2022/11/30 11:11:36;;;;;;;35.38;24.77;;;;;;;3.86;72.98;99829.88;5024950;28;20194;-73
2022/11/30 11:14:16;;;;;;;37.72;27.23;;;;;;;3.86;73.51;99832.50;5010462;28;20074;-73
2022/11/30 11:16:50;;;;;;;38.95;26.23;;;;;;;3.89;73.75;99821.09;5024735;28;20046;-73
2022/11/30 11:19:23;;;;;;;;;;;;;;;3.87;72.99;99822.88;5025707;28;20080;-73
2022/11/30 11:21:52;;;;;;;35.15;24.00;;;;;;;3.90;74.07;99807.94;5025510;28;19928;-73
2022/11/30 11:24:19;;;;;;;32.42;24.30;;;;;;;3.94;74.07;99809.59;5025834;28;20050;-73
2022/11/30 11:26:50;;;;;;;37.30;25.02;;;;;;;3.78;73.73;99761.88;5025300;28;20045;-73
2022/11/30 11:29:30;;;;;;;34.42;24.02;;;;;;;4.00;73.29;99791.13;5024929;28;20046;-73
2022/11/30 11:32:08;;;;;;;31.60;22.77;;;;;;;4.01;72.76;99784.97;5025116;28;20053;-73
2022/11/30 11:34:37;;;;;;;34.95;23.90;;;;;;;3.79;73.19;99740.00;5025213;28;20112;-73
2022/11/30 11:37:17;;;;;;;34.05;23.88;;;;;;;4.02;72.39;99770.97;5024730;28;20038;-73
2022/11/30 11:39:55;;;;;;;38.15;23.60;;;;;;;4.05;72.56;99768.28;5025078;28;20046;-73